Airfield :







YOU CAN JOIN US ON...

 
LOGIN :

Register | Disclaimer

   EN    FR    IT 

 









Legend :    VFR   Marginal VFR   IFR   Intensive IFR   Very Intensive IFR
Visi :
Ceiling :
>= 8 km
>= 3000ft
5 to 8 km
1000 to 3000 ft
1500m to 5 km
500 to 1000 ft
800 to 1500m
200 to 500 ft
< 800m
< 200 ft
Symbols :   Thunderstorms  Fog  Heavy snow  Heavy precipitations  Wind > 20 kt






- Airport Elevation : 38 ft
- IATA code : YMH


CYMH - Mary's Harbour

CURRENT METAR :
  • 241150Z AUTO 30024G37KT 5SM -SN CLR M12/M19 A3006 RMK SLP181

EXPIRED METARs :
  • 241147Z AUTO 31019G27KT 9SM -SN CLR M12/M19 A3006 RMK SLP182
  • 241100Z AUTO 32013G22KT 9SM FEW037 M11/M18 A3004 RMK PRESRR SLP174
  • 241041Z AUTO 32016G25KT 9SM CLR M11/M17 A3002 RMK SLP167
  • 241026Z AUTO 32015G28KT 6SM -SN FEW060 M10/M17 A3001 RMK SLP163
  • 241018Z AUTO 32018G27KT 5SM -SN SCT060 M10/M16 A3000 RMK SLP160
  • 241000Z AUTO 32015G25KT 9SM -SN BKN060 M09/M16 A2999 RMK PRESRR SLP157
  • 240951Z AUTO 32015G26KT 6SM -SN OVC055 M09/M15 A2998 RMK SLP154
  • 240946Z AUTO 32017G27KT 5SM -SN OVC055 M09/M15 A2997 RMK SLP151
  • 240936Z AUTO 32018G26KT 9SM -SN FEW036 OVC050 M08/M15 A2996 RMK PRESRR SLP149
  • 240922Z AUTO 32015G24KT 9SM -SN FEW027 SCT036 OVC048 M08/M14 A2995 RMK PRESRR SLP144
  • 240905Z AUTO 34015G22KT 9SM SCT025 BKN036 OVC044 M07/M13 A2993 RMK PRESRR SLP137

TAF TAF CYMH
Valid from the 24 at 10:00 until the 24 at 22:00 UTC


240938Z 2410/2422 34015G25KT P6SM -SN BKN030
TEMPO 2410/2413 5SM -SN OVC020
FM241300 33015G25KT P6SM SCT030
BECMG 2416/2418 31010G20KT RMK FCST BASED ON AUTO OBS. NXT FCST BY 241400Z



MET'MAP, your aeronautical weather chart ! - Copyright ORBIFLY December 2007 - Disclaimer

ORBIFLY MET'MAP TEAM :

Programming & Development : Alexandra Zaïnal
Concept & original design : Baudouin d'Aumeries
Assistance for programming : Marc-Olivier Méhu
Technical & hardware support : Manuel Goepfert

Contact : metmap@orbifly.com




SOURCES & CREDITS :

   NOAA